Zuiderdam — PBIG — position and weather

sailwx.info

Track history (hours):
 
Tides and Currents Weather Stations Pressure Air Temp Water Temp Dewpoint Dewpoint Depression Visibility Wind Speed Wind Dir Waves Ship Positions

Zuiderdam (Netherlands)

Operator: Holland America Line

Last reported at 2019-Aug-20 10:30 UTC. Time now 2019-Aug-20 10:36 UTC.
Position N 54°38' W 005°53'.

Type: Passenger vessel. MMSI: 245304000.

Date/timePositionNaut miles runAvg speedWind from/ knotsBaromVisibWave heightAir tempDewpointWater temp
2019-Aug-20 10:30N 54°38' W 005°53'0 0.0
2019-Aug-20 10:00N 54°38' W 005°53'0 0.0
2019-Aug-20 09:30N 54°38' W 005°53'0 0.0
2019-Aug-20 09:00N 54°38' W 005°53'0 0.0
2019-Aug-20 08:27N 54°38' W 005°53'0 0.0
2019-Aug-20 08:00N 54°38' W 005°53'0 0.0
2019-Aug-20 07:30N 54°38' W 005°53'0 0.0
2019-Aug-20 07:00N 54°38' W 005°53'0 0.4
2019-Aug-20 06:28N 54°38' W 005°53'3 5.3
2019-Aug-20 05:52N 54°40' W 005°50'4 9.4
2019-Aug-20 05:29N 54°42' W 005°45'4 8.4
2019-Aug-20 05:00N 54°44' W 005°39'713.1
2019-Aug-20 04:30N 54°42' W 005°28'918.2
2019-Aug-20 04:00N 54°33' W 005°23'918.7
2019-Aug-20 03:30N 54°24' W 005°20'918.6
2019-Aug-20 03:00N 54°15' W 005°25'918.3
2019-Aug-20 02:30N 54°07' W 005°30'3916.3
2019-Aug-20 00:05N 53°30' W 005°53'115.7
2019-Aug-20 00:00N 53°28' W 005°54'815.7
2019-Aug-19 23:29N 53°21' W 006°00'511.2
2019-Aug-19 23:00N 53°21' W 006°09'2 4.3
2019-Aug-19 22:30N 53°21' W 006°13'0 0.0
2019-Aug-19 22:00N 53°21' W 006°13'0 0.0
2019-Aug-19 21:30N 53°21' W 006°13'0 0.0
2019-Aug-19 21:00N 53°21' W 006°13'0 0.0
2019-Aug-19 20:30N 53°21' W 006°13'0 0.0
2019-Aug-19 20:00N 53°21' W 006°13'0 0.0
2019-Aug-19 19:30N 53°21' W 006°13'0 0.0
2019-Aug-19 19:00N 53°21' W 006°13'0 0.0
2019-Aug-19 18:30N 53°21' W 006°13'0 0.0
2019-Aug-19 18:00N 53°21' W 006°13'0 0.0
2019-Aug-19 17:30N 53°21' W 006°13'0 0.0
2019-Aug-19 16:57N 53°21' W 006°13'0 0.0
2019-Aug-19 16:30N 53°21' W 006°13'0 0.0
2019-Aug-19 16:00N 53°21' W 006°13'0 0.0
2019-Aug-19 15:30N 53°21' W 006°13'0 0.0
2019-Aug-19 14:42N 53°21' W 006°13'0 0.0
2019-Aug-19 14:18N 53°21' W 006°13'0 0.0
2019-Aug-19 13:51N 53°21' W 006°13'0 0.0
2019-Aug-19 13:21N 53°21' W 006°13'0 0.0
2019-Aug-19 12:54N 53°21' W 006°13'0 0.0
2019-Aug-19 12:24N 53°21' W 006°13'0 0.0
2019-Aug-19 11:57N 53°21' W 006°13'0 0.0
2019-Aug-19 11:30N 53°21' W 006°13'0 0.0
2019-Aug-19 11:00N 53°21' W 006°13'0 0.0
2019-Aug-19 10:30N 53°21' W 006°13'0 0.0
2019-Aug-19 10:00N 53°21' W 006°13'0 0.0
2019-Aug-19 09:30N 53°21' W 006°13'0 0.0
2019-Aug-19 09:00N 53°21' W 006°13'0 0.0
2019-Aug-19 08:15N 53°21' W 006°13'0 0.0
2019-Aug-19 07:39N 53°21' W 006°13'0 0.0
2019-Aug-19 07:30N 53°21' W 006°13'0 0.0
2019-Aug-19 07:00N 53°21' W 006°13'0 0.0
2019-Aug-19 06:30N 53°21' W 006°13'0 0.0
2019-Aug-19 05:57N 53°21' W 006°13'0 0.3
2019-Aug-19 05:30N 53°21' W 006°13'1 1.9
2019-Aug-19 05:00N 53°21' W 006°11'5 9.3
2019-Aug-19 04:30N 53°20' W 006°03'4 7.6
2019-Aug-19 04:00N 53°20' W 005°57'5 9.9
2019-Aug-19 03:30N 53°17' W 005°50'510.7
2019-Aug-19 03:00N 53°13' W 005°45'611.5
2019-Aug-19 02:30N 53°08' W 005°40'611.2
2019-Aug-19 01:59N 53°03' W 005°35'511.3
2019-Aug-19 01:30N 52°57' W 005°37'612.1
2019-Aug-19 00:58N 52°51' W 005°40'1414.7
2019-Aug-19 00:01N 52°37' W 005°45'015.7
2019-Aug-18 23:59N 52°37' W 005°45'816.4
2019-Aug-18 23:30N 52°29' W 005°48'919.0
2019-Aug-18 23:00N 52°20' W 005°52'1020.2
2019-Aug-18 22:30N 52°10' W 005°57'1019.1
2019-Aug-18 22:00N 52°03' W 006°06'1019.1
2019-Aug-18 21:30N 51°60' W 006°21'1119.5
2019-Aug-18 20:56N 51°57' W 006°38'1918.7
2019-Aug-18 19:56N 51°52' W 007°08'818.5
2019-Aug-18 19:30N 51°51' W 007°20'918.7
2019-Aug-18 19:01N 51°49' W 007°35'918.9
2019-Aug-18 18:30N 51°47' W 007°50'919.0
2019-Aug-18 18:00N 51°45' W 008°05'714.0
2019-Aug-18 17:30N 51°47' W 008°15'4 8.5
2019-Aug-18 17:00N 51°51' W 008°17'1 1.0
2019-Aug-18 16:28N 51°51' W 008°18'0 0.0
2019-Aug-18 15:58N 51°51' W 008°18'0 0.0
2019-Aug-18 15:28N 51°51' W 008°18'0 0.0
2019-Aug-18 14:58N 51°51' W 008°18'0 0.0
2019-Aug-18 14:28N 51°51' W 008°18'0 0.0
2019-Aug-18 13:58N 51°51' W 008°18'0 0.0
2019-Aug-18 13:28N 51°51' W 008°18'0 0.0
2019-Aug-18 12:58N 51°51' W 008°18'0 0.0
2019-Aug-18 12:28N 51°51' W 008°18'0 0.0
2019-Aug-18 11:58N 51°51' W 008°18'0 0.0
2019-Aug-18 11:28N 51°51' W 008°18'0 0.0
2019-Aug-18 10:58N 51°51' W 008°18'0 0.0
2019-Aug-18 10:28N 51°51' W 008°18'0 0.0
2019-Aug-18 09:58N 51°51' W 008°18'0 0.0
2019-Aug-18 09:28N 51°51' W 008°18'0 0.0
2019-Aug-18 08:58N 51°51' W 008°18'0 0.0
2019-Aug-18 08:28N 51°51' W 008°18'0 0.0
2019-Aug-18 07:58N 51°51' W 008°18'0 0.0
2019-Aug-18 06:58N 51°51' W 008°18'0 0.0
2019-Aug-18 06:30N 51°51' W 008°18'1 1.9
2019-Aug-18 06:00N 51°51' W 008°16'510.9
2019-Aug-18 05:30N 51°46' W 008°15'713.4
2019-Aug-18 05:00N 51°39' W 008°12'816.2
2019-Aug-18 04:30N 51°34' W 008°03'816.3
2019-Aug-18 04:00N 51°28' W 007°53'816.6
2019-Aug-18 03:30N 51°23' W 007°43'13514.8
2019-Aug-17 18:22N 49°50' W 005°07'1416.3
2019-Aug-17 17:30N 49°52' W 004°46'816.6
2019-Aug-17 17:00N 49°54' W 004°33'817.0
2019-Aug-17 16:30N 49°56' W 004°20'917.1
2019-Aug-17 16:00N 49°56' W 004°07'917.8
2019-Aug-17 15:30N 49°56' W 003°53'918.3
2019-Aug-17 15:00N 49°57' W 003°39'918.7
2019-Aug-17 14:30N 49°59' W 003°25'918.9
2019-Aug-17 14:00N 50°00' W 003°10'1019.4
2019-Aug-17 13:30N 50°01' W 002°55'1019.2
2019-Aug-17 13:00N 50°02' W 002°40'1218.1
2019-Aug-17 12:20N 50°06' W 002°22'1017.5
2019-Aug-17 11:46N 50°09' W 002°08'416.7
2019-Aug-17 11:31N 50°11' W 002°01'816.1
2019-Aug-17 11:00N 50°13' W 001°49'815.3
2019-Aug-17 10:30N 50°15' W 001°38'714.9
2019-Aug-17 10:01N 50°17' W 001°27'1913.2
2019-Aug-17 08:35N 50°22' W 000°58'111.4
2019-Aug-17 08:30N 50°22' W 000°57'612.0
2019-Aug-17 08:00N 50°24' W 000°48'612.9
2019-Aug-17 07:30N 50°25' W 000°38'815.9
2019-Aug-17 07:00N 50°28' W 000°26'816.9
2019-Aug-17 06:30N 50°30' W 000°13'917.3
2019-Aug-17 06:00N 50°32' W 000°00'1217.6
2019-Aug-17 05:19N 50°35' E 000°18'617.8
2019-Aug-17 04:59N 50°37' E 000°28'917.4
2019-Aug-17 04:29N 50°40' E 000°40'816.9
2019-Aug-17 04:01N 50°45' E 000°50'816.2
2019-Aug-17 03:30N 50°50' E 001°01'815.5
2019-Aug-17 03:00N 50°55' E 001°10'714.7
2019-Aug-17 02:30N 50°60' E 001°19'713.6
2019-Aug-17 02:00N 51°04' E 001°27'612.6
2019-Aug-17 01:30N 51°08' E 001°34'612.3
2019-Aug-17 01:00N 51°12' E 001°42'713.2
2019-Aug-17 00:30N 51°18' E 001°48'714.3
2019-Aug-17 00:00N 51°24' E 001°53'815.3
2019-Aug-16 23:31N 51°30' E 002°00'816.6
2019-Aug-16 23:00N 51°36' E 002°09'917.4
2019-Aug-16 22:30N 51°43' E 002°18'918.0
2019-Aug-16 22:00N 51°50' E 002°28'917.9
2019-Aug-16 21:30N 51°57' E 002°37'1916.7
2019-Aug-16 20:24N 52°03' E 003°06'817.5
2019-Aug-16 19:57N 52°03' E 003°18'817.1
2019-Aug-16 19:30N 52°04' E 003°31'917.1
2019-Aug-16 19:00N 52°04' E 003°44'713.7
2019-Aug-16 18:30N 52°03' E 003°56'713.6
2019-Aug-16 18:01N 51°59' E 004°05'612.0
2019-Aug-16 17:30N 51°56' E 004°13'4 8.6
2019-Aug-16 17:00N 51°54' E 004°19'4 7.8
2019-Aug-16 16:30N 51°54' E 004°25'2 4.9
2019-Aug-16 16:00N 51°54' E 004°29'0 0.0
2019-Aug-16 15:29N 51°54' E 004°29'0 0.0
2019-Aug-16 14:59N 51°54' E 004°29'0 0.0
2019-Aug-16 14:29N 51°54' E 004°29'0 0.0
2019-Aug-16 13:59N 51°54' E 004°29'0 0.0
2019-Aug-16 13:29N 51°54' E 004°29'0 0.0
2019-Aug-16 12:59N 51°54' E 004°29'0 0.0
2019-Aug-16 12:29N 51°54' E 004°29'0 0.0
2019-Aug-16 11:59N 51°54' E 004°29'0 0.0
2019-Aug-16 11:26N 51°54' E 004°29'0 0.0
2019-Aug-16 10:59N 51°54' E 004°29'0 0.0
2019-Aug-16 10:29N 51°54' E 004°29'0 0.0
2019-Aug-16 09:59N 51°54' E 004°29'0 0.0
2019-Aug-16 09:29N 51°54' E 004°29'0 0.0
2019-Aug-16 08:59N 51°54' E 004°29'0 0.0
2019-Aug-16 08:29N 51°54' E 004°29'0 0.0
2019-Aug-16 07:59N 51°54' E 004°29'0 0.0
2019-Aug-16 07:29N 51°54' E 004°29'0 0.0
2019-Aug-16 06:59N 51°54' E 004°29'0 0.0
2019-Aug-16 06:29N 51°54' E 004°29'0 0.0
2019-Aug-16 05:59N 51°54' E 004°29'0 0.0
2019-Aug-16 05:29N 51°54' E 004°29'0 0.2
2019-Aug-16 05:01N 51°54' E 004°29'2 3.5
2019-Aug-16 04:31N 51°54' E 004°26'2 4.9
2019-Aug-16 04:00N 51°54' E 004°22'4 7.9
2019-Aug-16 03:31N 51°54' E 004°16'612.1
2019-Aug-16 03:01N 51°58' E 004°08'815.5
2019-Aug-16 02:30N 52°00' E 003°56'5 9.2
2019-Aug-16 02:01N 52°00' E 003°49'4 7.7
2019-Aug-16 01:31N 52°04' E 003°46'5 9.6
2019-Aug-16 01:01N 52°09' E 003°46'611.3
2019-Aug-16 00:31N 52°14' E 003°46'612.6
2019-Aug-16 00:01N 52°21' E 003°47'714.3
2019-Aug-15 23:30N 52°28' E 003°50'713.7
2019-Aug-15 22:59N 52°35' E 003°50'813.2
2019-Aug-15 22:24N 52°42' E 003°55'27316.3
2019-Aug-15 05:38N 57°14' E 004°29'2017.2
2019-Aug-15 04:28N 57°34' E 004°24'817.1
2019-Aug-15 04:00N 57°42' E 004°22'2579.8
2019-Aug-15 04:00N 57°42' E 004°18'817.1 120 / 321004.010.8 15.811.817.1
2019-Aug-15 03:30N 57°50' E 004°20'917.4
2019-Aug-15 02:59N 57°59' E 004°17'917.4
2019-Aug-15 02:30N 58°08' E 004°15'917.3
2019-Aug-15 01:59N 58°16' E 004°12'917.6
2019-Aug-15 01:30N 58°25' E 004°10'917.6
2019-Aug-15 01:00N 58°34' E 004°09'917.5
2019-Aug-15 00:31N 58°42' E 004°06'917.4
2019-Aug-15 00:00N 58°51' E 004°04'917.6
2019-Aug-14 23:30N 58°60' E 004°02'917.6
2019-Aug-14 23:00N 59°08' E 004°02'917.4
2019-Aug-14 22:30N 59°17' E 004°02'917.5
2019-Aug-14 22:00N 59°26' E 004°02'917.7
2019-Aug-14 21:30N 59°35' E 004°02'917.8
2019-Aug-14 21:00N 59°43' E 004°04'917.8
2019-Aug-14 20:30N 59°52' E 004°05'917.9
2019-Aug-14 20:00N 60°01' E 004°04'917.7
2019-Aug-14 19:30N 60°10' E 004°03'917.9
2019-Aug-14 19:00N 60°19' E 004°04'917.5
2019-Aug-14 18:30N 60°27' E 004°11'917.8
2019-Aug-14 18:00N 60°34' E 004°22'917.3
2019-Aug-14 17:30N 60°41' E 004°32'714.5
2019-Aug-14 17:00N 60°44' E 004°45'713.5
2019-Aug-14 16:30N 60°38' E 004°53'1019.5
2019-Aug-14 16:00N 60°29' E 004°60'715.3
2019-Aug-14 15:30N 60°23' E 005°10'5 9.2
2019-Aug-14 15:00N 60°24' E 005°19'0 0.0
2019-Aug-14 14:30N 60°24' E 005°19'0 0.0
2019-Aug-14 14:00N 60°24' E 005°19'0 0.0
2019-Aug-14 13:30N 60°24' E 005°19'0 0.0
2019-Aug-14 13:00N 60°24' E 005°19'0 0.0
2019-Aug-14 12:30N 60°24' E 005°19'0 0.0
2019-Aug-14 12:00N 60°24' E 005°19'0 0.0
2019-Aug-14 11:30N 60°24' E 005°19'0 0.0
2019-Aug-14 11:00N 60°24' E 005°19'0 0.0
2019-Aug-14 10:30N 60°24' E 005°19'0 0.0
2019-Aug-14 10:00N 60°24' E 005°19'0 0.0
2019-Aug-14 09:30N 60°24' E 005°19'0 0.0
2019-Aug-14 09:00N 60°24' E 005°19'0 0.0
2019-Aug-14 08:30N 60°24' E 005°19'0 0.0
2019-Aug-14 08:00N 60°24' E 005°19'0 0.0
2019-Aug-14 07:30N 60°24' E 005°19'0 0.0
2019-Aug-14 07:00N 60°24' E 005°19'0 0.0
2019-Aug-14 06:30N 60°24' E 005°19'0 0.0
2019-Aug-14 06:00N 60°24' E 005°19'0 0.0
2019-Aug-14 05:30N 60°24' E 005°19'0 0.3
2019-Aug-14 05:00N 60°24' E 005°19'4 8.9
2019-Aug-14 04:30N 60°23' E 005°10'612.4
2019-Aug-14 04:00N 60°27' E 005°01'5596.2
2019-Aug-14 04:00N 60°24' E 004°54'1223.9 160 / 311009.010.8 12.5 9.717.7
2019-Aug-14 03:30N 60°36' E 004°54'917.5
2019-Aug-14 03:00N 60°44' E 004°46'611.2
2019-Aug-14 02:30N 60°46' E 004°35'612.8
2019-Aug-14 02:00N 60°49' E 004°25'612.6
2019-Aug-14 01:30N 60°53' E 004°14'612.6
2019-Aug-14 01:00N 60°57' E 004°04'612.1
2019-Aug-14 00:31N 61°01' E 003°54'612.5
2019-Aug-14 00:00N 61°05' E 003°44'612.5
2019-Aug-13 23:30N 61°08' E 003°33'612.6
2019-Aug-13 23:00N 61°12' E 003°23'612.7
2019-Aug-13 22:30N 61°16' E 003°13'612.7
2019-Aug-13 22:00N 61°20' E 003°02'612.5
2019-Aug-13 21:30N 61°24' E 002°52'612.5
2019-Aug-13 21:01N 61°27' E 002°41'612.4
2019-Aug-13 20:30N 61°31' E 002°31'612.3
2019-Aug-13 20:01N 61°35' E 002°21'35713.2
2019-Aug-12 17:00N 64°54' W 008°36'12312.3 190 / 171007.010.8 10.0 6.012.5
2019-Aug-12 07:00N 66°06' W 012°36'141 5.4 160 / 13998.0 5.4 8.2 7.310.8
2019-Aug-11 05:00N 66°00' W 018°24'3812.8 110 / 171014.0 5.4 6.7 5.611.0
2019-Aug-11 02:00N 66°18' W 019°48'   340 / 331018.010.8 6.6 0.910.5
Track history (hours):
 
Tides and Currents Weather Stations Pressure Air Temp Water Temp Dewpoint Dewpoint Depression Visibility Wind Speed Wind Dir Waves Ship Positions

Zuiderdam (Netherlands)

Operator: Holland America Line

Last reported at 2019-Aug-20 10:30 UTC. Time now 2019-Aug-20 10:36 UTC.
Position N 54°38' W 005°53'.

Type: Passenger vessel. MMSI: 245304000.

Date/timePositionNaut miles runAvg speedWind from/ knotsBaromVisibWave heightAir tempDewpointWater temp
2019-Aug-20 10:30N 54°38' W 005°53'0 0.0
2019-Aug-20 10:00N 54°38' W 005°53'0 0.0
2019-Aug-20 09:30N 54°38' W 005°53'0 0.0
2019-Aug-20 09:00N 54°38' W 005°53'0 0.0
2019-Aug-20 08:27N 54°38' W 005°53'0 0.0
2019-Aug-20 08:00N 54°38' W 005°53'0 0.0
2019-Aug-20 07:30N 54°38' W 005°53'0 0.0
2019-Aug-20 07:00N 54°38' W 005°53'0 0.4
2019-Aug-20 06:28N 54°38' W 005°53'3 5.3
2019-Aug-20 05:52N 54°40' W 005°50'4 9.4
2019-Aug-20 05:29N 54°42' W 005°45'4 8.4
2019-Aug-20 05:00N 54°44' W 005°39'713.1
2019-Aug-20 04:30N 54°42' W 005°28'918.2
2019-Aug-20 04:00N 54°33' W 005°23'918.7
2019-Aug-20 03:30N 54°24' W 005°20'918.6
2019-Aug-20 03:00N 54°15' W 005°25'918.3
2019-Aug-20 02:30N 54°07' W 005°30'3916.3
2019-Aug-20 00:05N 53°30' W 005°53'115.7
2019-Aug-20 00:00N 53°28' W 005°54'815.7
2019-Aug-19 23:29N 53°21' W 006°00'511.2
2019-Aug-19 23:00N 53°21' W 006°09'2 4.3
2019-Aug-19 22:30N 53°21' W 006°13'0 0.0
2019-Aug-19 22:00N 53°21' W 006°13'0 0.0
2019-Aug-19 21:30N 53°21' W 006°13'0 0.0
2019-Aug-19 21:00N 53°21' W 006°13'0 0.0
2019-Aug-19 20:30N 53°21' W 006°13'0 0.0
2019-Aug-19 20:00N 53°21' W 006°13'0 0.0
2019-Aug-19 19:30N 53°21' W 006°13'0 0.0
2019-Aug-19 19:00N 53°21' W 006°13'0 0.0
2019-Aug-19 18:30N 53°21' W 006°13'0 0.0
2019-Aug-19 18:00N 53°21' W 006°13'0 0.0
2019-Aug-19 17:30N 53°21' W 006°13'0 0.0
2019-Aug-19 16:57N 53°21' W 006°13'0 0.0
2019-Aug-19 16:30N 53°21' W 006°13'0 0.0
2019-Aug-19 16:00N 53°21' W 006°13'0 0.0
2019-Aug-19 15:30N 53°21' W 006°13'0 0.0
2019-Aug-19 14:42N 53°21' W 006°13'0 0.0
2019-Aug-19 14:18N 53°21' W 006°13'0 0.0
2019-Aug-19 13:51N 53°21' W 006°13'0 0.0
2019-Aug-19 13:21N 53°21' W 006°13'0 0.0
2019-Aug-19 12:54N 53°21' W 006°13'0 0.0
2019-Aug-19 12:24N 53°21' W 006°13'0 0.0
2019-Aug-19 11:57N 53°21' W 006°13'0 0.0
2019-Aug-19 11:30N 53°21' W 006°13'0 0.0
2019-Aug-19 11:00N 53°21' W 006°13'0 0.0
2019-Aug-19 10:30N 53°21' W 006°13'0 0.0
2019-Aug-19 10:00N 53°21' W 006°13'0 0.0
2019-Aug-19 09:30N 53°21' W 006°13'0 0.0
2019-Aug-19 09:00N 53°21' W 006°13'0 0.0
2019-Aug-19 08:15N 53°21' W 006°13'0 0.0
2019-Aug-19 07:39N 53°21' W 006°13'0 0.0
2019-Aug-19 07:30N 53°21' W 006°13'0 0.0
2019-Aug-19 07:00N 53°21' W 006°13'0 0.0
2019-Aug-19 06:30N 53°21' W 006°13'0 0.0
2019-Aug-19 05:57N 53°21' W 006°13'0 0.3
2019-Aug-19 05:30N 53°21' W 006°13'1 1.9
2019-Aug-19 05:00N 53°21' W 006°11'5 9.3
2019-Aug-19 04:30N 53°20' W 006°03'4 7.6
2019-Aug-19 04:00N 53°20' W 005°57'5 9.9
2019-Aug-19 03:30N 53°17' W 005°50'510.7
2019-Aug-19 03:00N 53°13' W 005°45'611.5
2019-Aug-19 02:30N 53°08' W 005°40'611.2
2019-Aug-19 01:59N 53°03' W 005°35'511.3
2019-Aug-19 01:30N 52°57' W 005°37'612.1
2019-Aug-19 00:58N 52°51' W 005°40'1414.7
2019-Aug-19 00:01N 52°37' W 005°45'015.7
2019-Aug-18 23:59N 52°37' W 005°45'816.4
2019-Aug-18 23:30N 52°29' W 005°48'919.0
2019-Aug-18 23:00N 52°20' W 005°52'1020.2
2019-Aug-18 22:30N 52°10' W 005°57'1019.1
2019-Aug-18 22:00N 52°03' W 006°06'1019.1
2019-Aug-18 21:30N 51°60' W 006°21'1119.5
2019-Aug-18 20:56N 51°57' W 006°38'1918.7
2019-Aug-18 19:56N 51°52' W 007°08'818.5
2019-Aug-18 19:30N 51°51' W 007°20'918.7
2019-Aug-18 19:01N 51°49' W 007°35'918.9
2019-Aug-18 18:30N 51°47' W 007°50'919.0
2019-Aug-18 18:00N 51°45' W 008°05'714.0
2019-Aug-18 17:30N 51°47' W 008°15'4 8.5
2019-Aug-18 17:00N 51°51' W 008°17'1 1.0
2019-Aug-18 16:28N 51°51' W 008°18'0 0.0
2019-Aug-18 15:58N 51°51' W 008°18'0 0.0
2019-Aug-18 15:28N 51°51' W 008°18'0 0.0
2019-Aug-18 14:58N 51°51' W 008°18'0 0.0
2019-Aug-18 14:28N 51°51' W 008°18'0 0.0
2019-Aug-18 13:58N 51°51' W 008°18'0 0.0
2019-Aug-18 13:28N 51°51' W 008°18'0 0.0
2019-Aug-18 12:58N 51°51' W 008°18'0 0.0
2019-Aug-18 12:28N 51°51' W 008°18'0 0.0
2019-Aug-18 11:58N 51°51' W 008°18'0 0.0
2019-Aug-18 11:28N 51°51' W 008°18'0 0.0
2019-Aug-18 10:58N 51°51' W 008°18'0 0.0
2019-Aug-18 10:28N 51°51' W 008°18'0 0.0
2019-Aug-18 09:58N 51°51' W 008°18'0 0.0
2019-Aug-18 09:28N 51°51' W 008°18'0 0.0
2019-Aug-18 08:58N 51°51' W 008°18'0 0.0
2019-Aug-18 08:28N 51°51' W 008°18'0 0.0
2019-Aug-18 07:58N 51°51' W 008°18'0 0.0
2019-Aug-18 06:58N 51°51' W 008°18'0 0.0
2019-Aug-18 06:30N 51°51' W 008°18'1 1.9
2019-Aug-18 06:00N 51°51' W 008°16'510.9
2019-Aug-18 05:30N 51°46' W 008°15'713.4
2019-Aug-18 05:00N 51°39' W 008°12'816.2
2019-Aug-18 04:30N 51°34' W 008°03'816.3
2019-Aug-18 04:00N 51°28' W 007°53'816.6
2019-Aug-18 03:30N 51°23' W 007°43'13514.8
2019-Aug-17 18:22N 49°50' W 005°07'1416.3
2019-Aug-17 17:30N 49°52' W 004°46'816.6
2019-Aug-17 17:00N 49°54' W 004°33'817.0
2019-Aug-17 16:30N 49°56' W 004°20'917.1
2019-Aug-17 16:00N 49°56' W 004°07'917.8
2019-Aug-17 15:30N 49°56' W 003°53'918.3
2019-Aug-17 15:00N 49°57' W 003°39'918.7
2019-Aug-17 14:30N 49°59' W 003°25'918.9
2019-Aug-17 14:00N 50°00' W 003°10'1019.4
2019-Aug-17 13:30N 50°01' W 002°55'1019.2
2019-Aug-17 13:00N 50°02' W 002°40'1218.1
2019-Aug-17 12:20N 50°06' W 002°22'1017.5
2019-Aug-17 11:46N 50°09' W 002°08'416.7
2019-Aug-17 11:31N 50°11' W 002°01'816.1
2019-Aug-17 11:00N 50°13' W 001°49'815.3
2019-Aug-17 10:30N 50°15' W 001°38'714.9
2019-Aug-17 10:01N 50°17' W 001°27'1913.2
2019-Aug-17 08:35N 50°22' W 000°58'111.4
2019-Aug-17 08:30N 50°22' W 000°57'612.0
2019-Aug-17 08:00N 50°24' W 000°48'612.9
2019-Aug-17 07:30N 50°25' W 000°38'815.9
2019-Aug-17 07:00N 50°28' W 000°26'816.9
2019-Aug-17 06:30N 50°30' W 000°13'917.3
2019-Aug-17 06:00N 50°32' W 000°00'1217.6
2019-Aug-17 05:19N 50°35' E 000°18'617.8
2019-Aug-17 04:59N 50°37' E 000°28'917.4
2019-Aug-17 04:29N 50°40' E 000°40'816.9
2019-Aug-17 04:01N 50°45' E 000°50'816.2
2019-Aug-17 03:30N 50°50' E 001°01'815.5
2019-Aug-17 03:00N 50°55' E 001°10'714.7
2019-Aug-17 02:30N 50°60' E 001°19'713.6
2019-Aug-17 02:00N 51°04' E 001°27'612.6
2019-Aug-17 01:30N 51°08' E 001°34'612.3
2019-Aug-17 01:00N 51°12' E 001°42'713.2
2019-Aug-17 00:30N 51°18' E 001°48'714.3
2019-Aug-17 00:00N 51°24' E 001°53'815.3
2019-Aug-16 23:31N 51°30' E 002°00'816.6
2019-Aug-16 23:00N 51°36' E 002°09'917.4
2019-Aug-16 22:30N 51°43' E 002°18'918.0
2019-Aug-16 22:00N 51°50' E 002°28'917.9
2019-Aug-16 21:30N 51°57' E 002°37'1916.7
2019-Aug-16 20:24N 52°03' E 003°06'817.5
2019-Aug-16 19:57N 52°03' E 003°18'817.1
2019-Aug-16 19:30N 52°04' E 003°31'917.1
2019-Aug-16 19:00N 52°04' E 003°44'713.7
2019-Aug-16 18:30N 52°03' E 003°56'713.6
2019-Aug-16 18:01N 51°59' E 004°05'612.0
2019-Aug-16 17:30N 51°56' E 004°13'4 8.6
2019-Aug-16 17:00N 51°54' E 004°19'4 7.8
2019-Aug-16 16:30N 51°54' E 004°25'2 4.9
2019-Aug-16 16:00N 51°54' E 004°29'0 0.0
2019-Aug-16 15:29N 51°54' E 004°29'0 0.0
2019-Aug-16 14:59N 51°54' E 004°29'0 0.0
2019-Aug-16 14:29N 51°54' E 004°29'0 0.0
2019-Aug-16 13:59N 51°54' E 004°29'0 0.0
2019-Aug-16 13:29N 51°54' E 004°29'0 0.0
2019-Aug-16 12:59N 51°54' E 004°29'0 0.0
2019-Aug-16 12:29N 51°54' E 004°29'0 0.0
2019-Aug-16 11:59N 51°54' E 004°29'0 0.0
2019-Aug-16 11:26N 51°54' E 004°29'0 0.0
2019-Aug-16 10:59N 51°54' E 004°29'0 0.0
2019-Aug-16 10:29N 51°54' E 004°29'0 0.0
2019-Aug-16 09:59N 51°54' E 004°29'0 0.0
2019-Aug-16 09:29N 51°54' E 004°29'0 0.0
2019-Aug-16 08:59N 51°54' E 004°29'0 0.0
2019-Aug-16 08:29N 51°54' E 004°29'0 0.0
2019-Aug-16 07:59N 51°54' E 004°29'0 0.0
2019-Aug-16 07:29N 51°54' E 004°29'0 0.0
2019-Aug-16 06:59N 51°54' E 004°29'0 0.0
2019-Aug-16 06:29N 51°54' E 004°29'0 0.0
2019-Aug-16 05:59N 51°54' E 004°29'0 0.0
2019-Aug-16 05:29N 51°54' E 004°29'0 0.2
2019-Aug-16 05:01N 51°54' E 004°29'2 3.5
2019-Aug-16 04:31N 51°54' E 004°26'2 4.9
2019-Aug-16 04:00N 51°54' E 004°22'4 7.9
2019-Aug-16 03:31N 51°54' E 004°16'612.1
2019-Aug-16 03:01N 51°58' E 004°08'815.5
2019-Aug-16 02:30N 52°00' E 003°56'5 9.2
2019-Aug-16 02:01N 52°00' E 003°49'4 7.7
2019-Aug-16 01:31N 52°04' E 003°46'5 9.6
2019-Aug-16 01:01N 52°09' E 003°46'611.3
2019-Aug-16 00:31N 52°14' E 003°46'612.6
2019-Aug-16 00:01N 52°21' E 003°47'714.3
2019-Aug-15 23:30N 52°28' E 003°50'713.7
2019-Aug-15 22:59N 52°35' E 003°50'813.2
2019-Aug-15 22:24N 52°42' E 003°55'27316.3
2019-Aug-15 05:38N 57°14' E 004°29'2017.2
2019-Aug-15 04:28N 57°34' E 004°24'817.1
2019-Aug-15 04:00N 57°42' E 004°22'2579.8
2019-Aug-15 04:00N 57°42' E 004°18'817.1 120 / 321004.010.8 15.811.817.1
2019-Aug-15 03:30N 57°50' E 004°20'917.4
2019-Aug-15 02:59N 57°59' E 004°17'917.4
2019-Aug-15 02:30N 58°08' E 004°15'917.3
2019-Aug-15 01:59N 58°16' E 004°12'917.6
2019-Aug-15 01:30N 58°25' E 004°10'917.6
2019-Aug-15 01:00N 58°34' E 004°09'917.5
2019-Aug-15 00:31N 58°42' E 004°06'917.4
2019-Aug-15 00:00N 58°51' E 004°04'917.6
2019-Aug-14 23:30N 58°60' E 004°02'917.6
2019-Aug-14 23:00N 59°08' E 004°02'917.4
2019-Aug-14 22:30N 59°17' E 004°02'917.5
2019-Aug-14 22:00N 59°26' E 004°02'917.7
2019-Aug-14 21:30N 59°35' E 004°02'917.8
2019-Aug-14 21:00N 59°43' E 004°04'917.8
2019-Aug-14 20:30N 59°52' E 004°05'917.9
2019-Aug-14 20:00N 60°01' E 004°04'917.7
2019-Aug-14 19:30N 60°10' E 004°03'917.9
2019-Aug-14 19:00N 60°19' E 004°04'917.5
2019-Aug-14 18:30N 60°27' E 004°11'917.8
2019-Aug-14 18:00N 60°34' E 004°22'917.3
2019-Aug-14 17:30N 60°41' E 004°32'714.5
2019-Aug-14 17:00N 60°44' E 004°45'713.5
2019-Aug-14 16:30N 60°38' E 004°53'1019.5
2019-Aug-14 16:00N 60°29' E 004°60'715.3
2019-Aug-14 15:30N 60°23' E 005°10'5 9.2
2019-Aug-14 15:00N 60°24' E 005°19'0 0.0
2019-Aug-14 14:30N 60°24' E 005°19'0 0.0
2019-Aug-14 14:00N 60°24' E 005°19'0 0.0
2019-Aug-14 13:30N 60°24' E 005°19'0 0.0
2019-Aug-14 13:00N 60°24' E 005°19'0 0.0
2019-Aug-14 12:30N 60°24' E 005°19'0 0.0
2019-Aug-14 12:00N 60°24' E 005°19'0 0.0
2019-Aug-14 11:30N 60°24' E 005°19'0 0.0
2019-Aug-14 11:00N 60°24' E 005°19'0 0.0
2019-Aug-14 10:30N 60°24' E 005°19'0 0.0
2019-Aug-14 10:00N 60°24' E 005°19'0 0.0
2019-Aug-14 09:30N 60°24' E 005°19'0 0.0
2019-Aug-14 09:00N 60°24' E 005°19'0 0.0
2019-Aug-14 08:30N 60°24' E 005°19'0 0.0
2019-Aug-14 08:00N 60°24' E 005°19'0 0.0
2019-Aug-14 07:30N 60°24' E 005°19'0 0.0
2019-Aug-14 07:00N 60°24' E 005°19'0 0.0
2019-Aug-14 06:30N 60°24' E 005°19'0 0.0
2019-Aug-14 06:00N 60°24' E 005°19'0 0.0
2019-Aug-14 05:30N 60°24' E 005°19'0 0.3
2019-Aug-14 05:00N 60°24' E 005°19'4 8.9
2019-Aug-14 04:30N 60°23' E 005°10'612.4
2019-Aug-14 04:00N 60°27' E 005°01'5596.2
2019-Aug-14 04:00N 60°24' E 004°54'1223.9 160 / 311009.010.8 12.5 9.717.7
2019-Aug-14 03:30N 60°36' E 004°54'917.5
2019-Aug-14 03:00N 60°44' E 004°46'611.2
2019-Aug-14 02:30N 60°46' E 004°35'612.8
2019-Aug-14 02:00N 60°49' E 004°25'612.6
2019-Aug-14 01:30N 60°53' E 004°14'612.6
2019-Aug-14 01:00N 60°57' E 004°04'612.1
2019-Aug-14 00:31N 61°01' E 003°54'612.5
2019-Aug-14 00:00N 61°05' E 003°44'612.5
2019-Aug-13 23:30N 61°08' E 003°33'612.6
2019-Aug-13 23:00N 61°12' E 003°23'612.7
2019-Aug-13 22:30N 61°16' E 003°13'612.7
2019-Aug-13 22:00N 61°20' E 003°02'612.5
2019-Aug-13 21:30N 61°24' E 002°52'612.5
2019-Aug-13 21:01N 61°27' E 002°41'612.4
2019-Aug-13 20:30N 61°31' E 002°31'612.3
2019-Aug-13 20:01N 61°35' E 002°21'35713.2
2019-Aug-12 17:00N 64°54' W 008°36'12312.3 190 / 171007.010.8 10.0 6.012.5
2019-Aug-12 07:00N 66°06' W 012°36'141 5.4 160 / 13998.0 5.4 8.2 7.310.8
2019-Aug-11 05:00N 66°00' W 018°24'3812.8 110 / 171014.0 5.4 6.7 5.611.0
2019-Aug-11 02:00N 66°18' W 019°48'   340 / 331018.010.8 6.6 0.910.5

Dump ship's entire track history